createdAt,value
2019-04-29T00:00:04.922Z,2
2019-04-29T00:01:01.784Z,2
2019-04-29T00:02:02.050Z,0
2019-04-29T00:03:02.279Z,2
2019-04-29T00:04:02.535Z,2
2019-04-29T00:05:01.912Z,2
2019-04-29T00:06:02.057Z,2
2019-04-29T00:07:02.036Z,2
2019-04-29T00:08:02.315Z,1
2019-04-29T00:09:02.476Z,2
2019-04-29T00:10:01.787Z,2
2019-04-29T00:11:01.931Z,2
2019-04-29T00:12:02.152Z,2
2019-04-29T00:13:02.389Z,2
2019-04-29T00:14:02.604Z,1
2019-04-29T00:15:02.631Z,2
2019-04-29T00:16:02.138Z,2
2019-04-29T00:17:02.300Z,2
2019-04-29T00:18:02.544Z,2
2019-04-29T00:19:01.842Z,2
2019-04-29T00:20:02.105Z,1
2019-04-29T00:21:02.218Z,2
2019-04-29T00:22:02.443Z,2
2019-04-29T00:23:02.604Z,2
2019-04-29T00:24:04.629Z,2
2019-04-29T00:25:02.086Z,2
2019-04-29T00:26:02.254Z,0
2019-04-29T00:27:02.498Z,2
2019-04-29T00:28:01.750Z,2
2019-04-29T00:29:05.517Z,2
2019-04-29T00:30:02.260Z,2
2019-04-29T00:31:02.579Z,2
2019-04-29T00:32:01.706Z,0
2019-04-29T00:33:01.990Z,2
2019-04-29T00:34:02.229Z,2
2019-04-29T00:35:02.461Z,2
2019-04-29T00:36:02.610Z,2
2019-04-29T00:37:01.866Z,2
2019-04-29T00:38:02.087Z,1
2019-04-29T00:39:02.343Z,2
2019-04-29T00:40:02.583Z,2
2019-04-29T00:41:01.709Z,2
2019-04-29T00:42:02.035Z,2
2019-04-29T00:43:02.245Z,2
2019-04-29T00:44:02.412Z,1
2019-04-29T00:45:02.725Z,4
2019-04-29T00:46:01.885Z,4
2019-04-29T00:47:02.088Z,4
2019-04-29T00:48:02.413Z,4
2019-04-29T00:49:02.706Z,4
2019-04-29T00:50:01.927Z,2
2019-04-29T00:51:02.097Z,1
2019-04-29T00:52:02.400Z,1
2019-04-29T00:53:02.642Z,1
2019-04-29T00:54:01.879Z,1
2019-04-29T00:55:02.062Z,1
2019-04-29T00:56:02.254Z,0
2019-04-29T00:57:02.486Z,2
2019-04-29T00:58:01.655Z,2
2019-04-29T00:59:01.914Z,2
2019-04-29T01:00:04.799Z,2
2019-04-29T01:01:01.702Z,2
2019-04-29T01:02:01.921Z,0
2019-04-29T01:03:02.175Z,4
2019-04-29T01:04:02.344Z,4
2019-04-29T01:05:02.626Z,4
2019-04-29T01:06:02.528Z,4
2019-04-29T01:07:02.426Z,4
2019-04-29T01:08:01.686Z,1
2019-04-29T01:09:01.869Z,1
2019-04-29T01:10:02.101Z,1
2019-04-29T01:11:02.335Z,1
2019-04-29T01:12:02.590Z,1
2019-04-29T01:13:01.837Z,1
2019-04-29T01:14:02.043Z,0
2019-04-29T01:15:02.296Z,1
2019-04-29T01:16:02.492Z,1
2019-04-29T01:17:01.847Z,1
2019-04-29T01:18:02.015Z,1
2019-04-29T01:19:04.353Z,1
2019-04-29T01:20:02.448Z,0
2019-04-29T01:21:01.783Z,1
2019-04-29T01:22:01.926Z,1
2019-04-29T01:23:02.182Z,1
2019-04-29T01:24:02.390Z,1
2019-04-29T01:25:03.230Z,1
2019-04-29T01:26:01.931Z,1
2019-04-29T01:27:02.166Z,5
2019-04-29T01:28:02.341Z,5
2019-04-29T01:29:02.619Z,5
2019-04-29T01:30:01.826Z,5
2019-04-29T01:31:02.133Z,5
2019-04-29T01:32:02.396Z,0
2019-04-29T01:33:02.627Z,2
2019-04-29T01:34:01.972Z,2
2019-04-29T01:35:02.035Z,2
2019-04-29T01:36:02.290Z,2
2019-04-29T01:37:02.510Z,2
2019-04-29T01:38:01.735Z,0
2019-04-29T01:39:01.997Z,2
2019-04-29T01:40:02.248Z,2
2019-04-29T01:41:02.036Z,2
2019-04-29T01:42:02.219Z,2
2019-04-29T01:43:02.477Z,2
2019-04-29T01:44:01.710Z,0
2019-04-29T01:45:01.893Z,4
2019-04-29T01:46:02.103Z,4
2019-04-29T01:47:02.373Z,4
2019-04-29T01:48:02.537Z,4
2019-04-29T01:49:01.804Z,4
2019-04-29T01:50:02.784Z,1
2019-04-29T01:51:02.524Z,4
2019-04-29T01:52:01.700Z,4
2019-04-29T01:53:01.901Z,4
2019-04-29T01:54:02.161Z,4
2019-04-29T01:55:02.349Z,4
2019-04-29T01:56:02.622Z,2
2019-04-29T01:57:01.817Z,2
2019-04-29T01:58:02.094Z,2
2019-04-29T01:59:02.409Z,2
2019-04-29T02:00:03.720Z,2
2019-04-29T02:01:02.563Z,2
2019-04-29T02:02:01.830Z,0
2019-04-29T02:03:02.017Z,2
2019-04-29T02:04:02.234Z,2
2019-04-29T02:05:01.857Z,2
2019-04-29T02:06:01.866Z,2
2019-04-29T02:07:02.023Z,2
2019-04-29T02:08:02.257Z,0
2019-04-29T02:09:02.476Z,2
2019-04-29T02:10:02.140Z,2
2019-04-29T02:11:02.016Z,2
2019-04-29T02:12:02.215Z,2
2019-04-29T02:13:02.395Z,2
2019-04-29T02:14:02.208Z,0
2019-04-29T02:15:02.455Z,2
2019-04-29T02:16:01.693Z,2
2019-04-29T02:17:01.915Z,2
2019-04-29T02:18:02.144Z,2
2019-04-29T02:19:02.381Z,2
2019-04-29T02:20:02.636Z,1
2019-04-29T02:21:01.919Z,2
2019-04-29T02:22:02.107Z,2
2019-04-29T02:23:02.287Z,2
2019-04-29T02:24:03.187Z,2
2019-04-29T02:25:01.836Z,2
2019-04-29T02:26:02.095Z,2
2019-04-29T02:27:05.620Z,2
2019-04-29T02:28:02.450Z,2
2019-04-29T02:29:01.692Z,2
2019-04-29T02:30:01.991Z,2
2019-04-29T02:31:02.102Z,2
2019-04-29T02:32:02.402Z,2
2019-04-29T02:33:02.512Z,2
2019-04-29T02:34:01.803Z,2
2019-04-29T02:35:02.177Z,2
2019-04-29T02:36:01.979Z,2
2019-04-29T02:37:02.266Z,2
2019-04-29T02:38:02.348Z,2
2019-04-29T02:39:02.591Z,2
2019-04-29T02:40:01.920Z,2
2019-04-29T02:41:01.997Z,2
2019-04-29T02:42:02.306Z,2
2019-04-29T02:43:02.519Z,2
2019-04-29T02:44:01.769Z,2
2019-04-29T02:45:02.067Z,2
2019-04-29T02:46:02.279Z,2
2019-04-29T02:47:02.452Z,2
2019-04-29T02:48:01.676Z,2
2019-04-29T02:49:01.918Z,2
2019-04-29T02:50:02.201Z,2
2019-04-29T02:51:02.242Z,4
2019-04-29T02:52:02.534Z,4
2019-04-29T02:53:01.709Z,4
2019-04-29T02:54:01.950Z,4
2019-04-29T02:55:02.328Z,4
2019-04-29T02:56:02.569Z,4
2019-04-29T02:57:01.832Z,4
2019-04-29T02:58:02.083Z,4
2019-04-29T02:59:02.360Z,4
2019-04-29T03:00:02.611Z,4
2019-04-29T03:01:01.909Z,4
2019-04-29T03:02:02.574Z,4
2019-04-29T03:03:01.786Z,4
2019-04-29T03:04:01.995Z,4
2019-04-29T03:05:02.216Z,4
2019-04-29T03:06:02.483Z,4
2019-04-29T03:07:01.699Z,4
2019-04-29T03:08:01.839Z,4
2019-04-29T03:09:02.111Z,2
2019-04-29T03:10:02.453Z,2
2019-04-29T03:11:02.613Z,2
2019-04-29T03:12:02.372Z,2
2019-04-29T03:13:02.108Z,2
2019-04-29T03:14:02.296Z,2
2019-04-29T03:15:02.718Z,2
2019-04-29T03:16:01.814Z,2
2019-04-29T03:17:02.102Z,2
2019-04-29T03:18:01.973Z,2
2019-04-29T03:19:02.208Z,2
2019-04-29T03:20:02.577Z,2
2019-04-29T03:21:01.856Z,2
2019-04-29T03:22:01.981Z,2
2019-04-29T03:23:02.205Z,2
2019-04-29T03:24:02.553Z,2
2019-04-29T03:25:01.790Z,2
2019-04-29T03:26:01.973Z,2
2019-04-29T03:27:02.258Z,2
2019-04-29T03:28:02.433Z,2
2019-04-29T03:29:01.678Z,2
2019-04-29T03:30:02.616Z,2
2019-04-29T03:31:02.442Z,2
2019-04-29T03:32:02.609Z,2
2019-04-29T03:33:01.881Z,4
2019-04-29T03:34:02.061Z,4
2019-04-29T03:35:02.342Z,4
2019-04-29T03:36:02.486Z,4
2019-04-29T03:37:01.727Z,4
2019-04-29T03:38:02.032Z,4
2019-04-29T03:39:02.175Z,2
2019-04-29T03:40:02.395Z,2
2019-04-29T03:41:02.564Z,2
2019-04-29T03:42:01.756Z,2
2019-04-29T03:43:02.322Z,2
2019-04-29T03:44:02.158Z,2
2019-04-29T03:45:02.374Z,1
2019-04-29T03:46:02.485Z,1
2019-04-29T03:47:01.717Z,1
2019-04-29T03:48:01.988Z,1
2019-04-29T03:49:02.106Z,1
2019-04-29T03:50:02.388Z,1
2019-04-29T03:51:02.585Z,2
2019-04-29T03:52:01.986Z,2
2019-04-29T03:53:02.137Z,2
2019-04-29T03:54:02.320Z,2
2019-04-29T03:55:02.786Z,2
2019-04-29T03:56:01.768Z,2
2019-04-29T03:57:02.060Z,2
2019-04-29T03:58:02.346Z,2
2019-04-29T03:59:02.452Z,2
2019-04-29T04:00:03.798Z,2
2019-04-29T04:01:02.602Z,2
2019-04-29T04:02:01.865Z,2
2019-04-29T04:03:02.050Z,2
2019-04-29T04:04:02.308Z,2
2019-04-29T04:05:02.553Z,2
2019-04-29T04:06:01.720Z,2
2019-04-29T04:07:04.594Z,2
2019-04-29T04:08:02.215Z,2
2019-04-29T04:09:06.851Z,2
2019-04-29T04:10:02.739Z,2
2019-04-29T04:11:01.905Z,2
2019-04-29T04:12:02.173Z,2
2019-04-29T04:13:02.409Z,2
2019-04-29T04:14:02.558Z,2
2019-04-29T04:15:02.630Z,2
2019-04-29T04:16:01.798Z,2
2019-04-29T04:17:02.087Z,2
2019-04-29T04:18:02.278Z,2
2019-04-29T04:19:02.453Z,2
2019-04-29T04:20:01.838Z,2
2019-04-29T04:21:01.974Z,4
2019-04-29T04:22:02.311Z,4
2019-04-29T04:23:02.633Z,4
2019-04-29T04:24:01.766Z,4
2019-04-29T04:25:02.078Z,4
2019-04-29T04:26:02.262Z,4
2019-04-29T04:27:02.719Z,1
2019-04-29T04:28:01.688Z,1
2019-04-29T04:29:01.964Z,1
2019-04-29T04:30:02.296Z,1
2019-04-29T04:31:07.393Z,1
2019-04-29T04:32:02.682Z,1
2019-04-29T04:33:01.776Z,2
2019-04-29T04:34:01.993Z,2
2019-04-29T04:35:02.290Z,2
2019-04-29T04:36:02.461Z,2
2019-04-29T04:37:01.737Z,2
2019-04-29T04:38:01.880Z,2
2019-04-29T04:39:02.156Z,4
2019-04-29T04:40:02.435Z,4
2019-04-29T04:41:01.628Z,4
2019-04-29T04:42:01.911Z,4
2019-04-29T04:43:02.128Z,4
2019-04-29T04:44:02.365Z,4
2019-04-29T04:45:02.591Z,2
2019-04-29T04:46:01.828Z,2
2019-04-29T04:47:02.072Z,2
2019-04-29T04:48:02.243Z,2
2019-04-29T04:49:02.432Z,2
2019-04-29T04:50:01.699Z,2
2019-04-29T04:51:02.016Z,2
2019-04-29T04:52:02.145Z,2
2019-04-29T04:53:02.380Z,2
2019-04-29T04:54:02.629Z,2
2019-04-29T04:55:01.827Z,2
2019-04-29T04:56:02.107Z,2
2019-04-29T04:57:02.274Z,1
2019-04-29T04:58:02.440Z,1
2019-04-29T04:59:01.649Z,1
2019-04-29T05:00:04.708Z,1
2019-04-29T05:01:01.904Z,1
2019-04-29T05:02:02.045Z,1
2019-04-29T05:03:02.312Z,2
2019-04-29T05:04:02.523Z,2
2019-04-29T05:05:01.695Z,2
2019-04-29T05:06:01.849Z,2
2019-04-29T05:07:01.802Z,2
2019-04-29T05:08:02.084Z,2
2019-04-29T05:09:02.383Z,2
2019-04-29T05:10:02.649Z,2
2019-04-29T05:11:01.875Z,2
2019-04-29T05:12:02.128Z,2
2019-04-29T05:13:02.356Z,2
2019-04-29T05:14:02.604Z,2
2019-04-29T05:15:02.581Z,4
2019-04-29T05:16:01.837Z,4
2019-04-29T05:17:02.114Z,4
2019-04-29T05:18:02.457Z,4
2019-04-29T05:19:02.380Z,4
2019-04-29T05:20:02.725Z,4
2019-04-29T05:21:01.879Z,2
2019-04-29T05:22:02.061Z,2
2019-04-29T05:23:02.294Z,2
2019-04-29T05:24:02.543Z,2
2019-04-29T05:25:01.786Z,2
2019-04-29T05:26:02.086Z,2
2019-04-29T05:27:02.237Z,2
2019-04-29T05:28:02.543Z,2
2019-04-29T05:29:01.681Z,2
2019-04-29T05:30:01.888Z,2
2019-04-29T05:31:02.208Z,2
2019-04-29T05:32:02.432Z,2
2019-04-29T05:33:02.651Z,4
2019-04-29T05:34:01.803Z,4
2019-04-29T05:35:02.106Z,4
2019-04-29T05:36:03.911Z,4
2019-04-29T05:37:02.133Z,4
2019-04-29T05:38:02.377Z,4
2019-04-29T05:39:02.592Z,2
2019-04-29T05:40:01.809Z,2
2019-04-29T05:41:01.949Z,2
2019-04-29T05:42:02.187Z,2
2019-04-29T05:43:05.473Z,2
2019-04-29T05:44:02.596Z,2
2019-04-29T05:45:01.820Z,1
2019-04-29T05:46:02.039Z,1
2019-04-29T05:47:02.246Z,1
2019-04-29T05:48:02.479Z,1
2019-04-29T05:49:08.948Z,1
2019-04-29T05:50:01.845Z,1
2019-04-29T05:51:02.186Z,4
2019-04-29T05:52:03.536Z,4
2019-04-29T05:53:02.468Z,4
2019-04-29T05:54:01.647Z,4
2019-04-29T05:55:02.088Z,4
2019-04-29T05:56:02.159Z,4
2019-04-29T05:57:02.329Z,4
2019-04-29T05:58:04.203Z,4
2019-04-29T05:59:02.486Z,4
2019-04-29T06:00:04.176Z,4
2019-04-29T06:01:01.896Z,4
2019-04-29T06:02:02.094Z,4
2019-04-29T06:03:02.308Z,4
2019-04-29T06:04:02.581Z,4
2019-04-29T06:05:01.763Z,4
2019-04-29T06:06:02.035Z,4
2019-04-29T06:07:02.160Z,4
2019-04-29T06:08:03.245Z,4
2019-04-29T06:09:02.470Z,4
2019-04-29T06:10:02.554Z,4
2019-04-29T06:11:01.767Z,4
2019-04-29T06:12:02.006Z,4
2019-04-29T06:13:02.189Z,4
2019-04-29T06:14:02.450Z,4
2019-04-29T06:15:01.749Z,2
2019-04-29T06:16:01.929Z,2
2019-04-29T06:17:07.680Z,2
2019-04-29T06:18:02.581Z,2
2019-04-29T06:19:06.241Z,2
2019-04-29T06:20:02.009Z,2
2019-04-29T06:21:09.729Z,2
2019-04-29T06:22:04.356Z,2
2019-04-29T06:23:01.654Z,2
2019-04-29T06:24:06.478Z,2
2019-04-29T06:25:01.952Z,2
2019-04-29T06:26:02.105Z,2
2019-04-29T06:27:02.269Z,2
2019-04-29T06:28:02.629Z,2
2019-04-29T06:29:01.727Z,2
2019-04-29T06:30:05.153Z,2
2019-04-29T06:31:01.942Z,2
2019-04-29T06:32:02.128Z,2
2019-04-29T06:33:02.372Z,2
2019-04-29T06:34:06.711Z,2
2019-04-29T06:35:01.921Z,2
2019-04-29T06:36:02.061Z,2
2019-04-29T06:37:02.234Z,2
2019-04-29T06:38:02.468Z,2
2019-04-29T06:39:02.341Z,4
2019-04-29T06:40:02.695Z,4
2019-04-29T06:41:09.987Z,4
2019-04-29T06:42:01.893Z,4
2019-04-29T06:43:02.111Z,4
2019-04-29T06:44:16.481Z,4
2019-04-29T06:45:02.719Z,2
2019-04-29T06:46:01.932Z,2
2019-04-29T06:47:02.040Z,2
2019-04-29T06:48:02.245Z,2
2019-04-29T06:49:11.061Z,2
2019-04-29T06:50:01.847Z,2
2019-04-29T06:51:01.875Z,4
2019-04-29T06:52:02.129Z,4
2019-04-29T06:53:02.397Z,4
2019-04-29T06:54:02.603Z,4
2019-04-29T06:55:01.893Z,4
2019-04-29T06:56:02.107Z,4
2019-04-29T06:57:02.299Z,2
2019-04-29T06:58:02.480Z,2
2019-04-29T06:59:01.730Z,2
2019-04-29T07:00:04.222Z,2
2019-04-29T07:01:03.652Z,2
2019-04-29T07:02:01.964Z,2
2019-04-29T07:03:02.203Z,2
2019-04-29T07:04:02.475Z,2
2019-04-29T07:05:01.771Z,2
2019-04-29T07:06:01.955Z,2
2019-04-29T07:07:02.140Z,2
2019-04-29T07:08:02.389Z,2
2019-04-29T07:09:01.662Z,2
2019-04-29T07:10:01.990Z,2
2019-04-29T07:11:03.486Z,2
2019-04-29T07:12:02.463Z,2
2019-04-29T07:13:01.687Z,2
2019-04-29T07:14:01.868Z,2
2019-04-29T07:15:02.210Z,2
2019-04-29T07:16:02.380Z,2
2019-04-29T07:17:07.414Z,2
2019-04-29T07:18:01.805Z,2
2019-04-29T07:19:02.063Z,2
2019-04-29T07:20:03.616Z,2
2019-04-29T07:21:02.620Z,2
2019-04-29T07:22:01.732Z,2
2019-04-29T07:23:02.857Z,2
2019-04-29T07:24:02.145Z,2
2019-04-29T07:25:02.487Z,2
2019-04-29T07:26:01.704Z,2
2019-04-29T07:27:04.615Z,2
2019-04-29T07:28:02.069Z,2
2019-04-29T07:29:02.250Z,2
2019-04-29T07:30:08.534Z,2
2019-04-29T07:31:03.518Z,2
2019-04-29T07:32:09.542Z,2
2019-04-29T07:33:01.787Z,2
2019-04-29T07:34:02.050Z,2
2019-04-29T07:35:09.991Z,2
2019-04-29T07:36:11.796Z,2
2019-04-29T07:37:01.719Z,2
2019-04-29T07:38:08.750Z,2
2019-04-29T07:39:02.191Z,2
2019-04-29T07:40:09.247Z,2
2019-04-29T07:41:01.666Z,2
2019-04-29T07:42:03.726Z,2
2019-04-29T07:43:09.262Z,2
2019-04-29T07:44:02.195Z,2
2019-04-29T07:45:02.458Z,1
2019-04-29T07:46:05.661Z,1
2019-04-29T07:47:02.919Z,1
2019-04-29T07:48:07.747Z,1
2019-04-29T07:49:05.704Z,1
2019-04-29T07:50:02.621Z,1
2019-04-29T07:51:06.110Z,2
2019-04-29T07:52:01.999Z,2
2019-04-29T07:53:02.136Z,2
2019-04-29T07:54:02.399Z,2
2019-04-29T07:55:02.665Z,2
2019-04-29T07:56:07.937Z,2
2019-04-29T07:57:02.193Z,4
2019-04-29T07:58:02.381Z,4
2019-04-29T07:59:04.791Z,4
2019-04-29T08:00:04.015Z,4
2019-04-29T08:01:01.818Z,4
2019-04-29T08:02:02.063Z,4
2019-04-29T08:03:02.302Z,5
2019-04-29T08:04:02.531Z,5
2019-04-29T08:05:02.016Z,5
2019-04-29T08:06:02.212Z,5
2019-04-29T08:07:02.469Z,5
2019-04-29T08:08:01.701Z,5
2019-04-29T08:09:09.659Z,2
2019-04-29T08:10:02.300Z,2
2019-04-29T08:11:02.456Z,2
2019-04-29T08:12:01.748Z,2
2019-04-29T08:13:01.846Z,2
2019-04-29T08:14:02.090Z,2
2019-04-29T08:15:09.272Z,2
2019-04-29T08:16:02.599Z,2
2019-04-29T08:17:01.766Z,2
2019-04-29T08:18:11.194Z,2
2019-04-29T08:19:05.542Z,2
2019-04-29T08:20:06.607Z,2
2019-04-29T08:21:01.678Z,4
2019-04-29T08:22:01.892Z,4
2019-04-29T08:23:04.334Z,4
2019-04-29T08:24:02.312Z,4
2019-04-29T08:25:02.644Z,4
2019-04-29T08:26:04.601Z,4
2019-04-29T08:27:02.214Z,5
2019-04-29T08:28:02.335Z,5
2019-04-29T08:29:02.559Z,5
2019-04-29T08:30:06.569Z,5
2019-04-29T08:31:01.873Z,5
2019-04-29T08:32:02.967Z,5
2019-04-29T08:33:02.251Z,5
2019-04-29T08:34:02.522Z,5
2019-04-29T08:35:03.700Z,5
2019-04-29T08:36:02.013Z,5
2019-04-29T08:37:02.140Z,5
2019-04-29T08:38:02.353Z,5
2019-04-29T08:39:09.306Z,4
2019-04-29T08:40:17.027Z,4
2019-04-29T08:41:02.072Z,4
2019-04-29T08:42:09.111Z,4
2019-04-29T08:43:02.527Z,4
2019-04-29T08:44:16.915Z,4
2019-04-29T08:45:02.368Z,5
2019-04-29T08:46:02.160Z,5
2019-04-29T08:47:02.362Z,5
2019-04-29T08:48:02.550Z,5
2019-04-29T08:49:10.927Z,5
2019-04-29T08:50:02.315Z,5
2019-04-29T08:51:02.292Z,4
2019-04-29T08:52:02.543Z,4
2019-04-29T08:53:01.752Z,4
2019-04-29T08:54:02.066Z,4
2019-04-29T08:55:02.016Z,4
2019-04-29T08:56:10.560Z,4
2019-04-29T08:57:04.641Z,4
2019-04-29T08:58:02.631Z,4
2019-04-29T08:59:01.883Z,4
2019-04-29T09:00:08.389Z,4
2019-04-29T09:01:02.276Z,4
2019-04-29T09:02:10.675Z,4
2019-04-29T09:03:01.626Z,5
2019-04-29T09:04:01.826Z,5
2019-04-29T09:05:02.236Z,5
2019-04-29T09:06:06.265Z,5
2019-04-29T09:07:17.349Z,5
2019-04-29T09:08:02.305Z,5
2019-04-29T09:09:20.243Z,2
2019-04-29T09:10:03.975Z,2
2019-04-29T09:11:02.034Z,2
2019-04-29T09:12:02.211Z,2
2019-04-29T09:13:02.458Z,2
2019-04-29T09:14:01.675Z,2
2019-04-29T09:15:01.881Z,5
2019-04-29T09:16:02.152Z,5
2019-04-29T09:17:19.793Z,5
2019-04-29T09:18:02.352Z,5
2019-04-29T09:19:02.527Z,5
2019-04-29T09:20:01.755Z,5
2019-04-29T09:21:01.943Z,4
2019-04-29T09:22:02.181Z,4
2019-04-29T09:23:02.370Z,4
2019-04-29T09:24:02.602Z,4
2019-04-29T09:25:02.344Z,4
2019-04-29T09:26:03.576Z,4
2019-04-29T09:27:11.106Z,5
2019-04-29T09:28:01.759Z,5
2019-04-29T09:29:05.555Z,5
2019-04-29T09:30:02.211Z,5
2019-04-29T09:31:01.891Z,5
2019-04-29T09:32:02.254Z,5
2019-04-29T09:33:02.399Z,8
2019-04-29T09:34:07.302Z,8
2019-04-29T09:35:01.788Z,8
2019-04-29T09:36:01.868Z,8
2019-04-29T09:37:02.087Z,8
2019-04-29T09:38:02.234Z,8
2019-04-29T09:39:02.419Z,6
2019-04-29T09:40:02.666Z,6
2019-04-29T09:41:01.909Z,6
2019-04-29T09:42:08.125Z,6
2019-04-29T09:43:16.120Z,6
2019-04-29T09:44:05.736Z,6
2019-04-29T09:45:01.725Z,6
2019-04-29T09:46:01.982Z,6
2019-04-29T09:47:08.838Z,6
2019-04-29T09:48:02.387Z,6
2019-04-29T09:49:01.631Z,6
2019-04-29T09:50:01.946Z,6
2019-04-29T09:51:02.152Z,3
2019-04-29T09:52:02.334Z,3
2019-04-29T09:53:02.531Z,3
2019-04-29T09:54:01.818Z,3
2019-04-29T09:55:05.942Z,3
2019-04-29T09:56:01.852Z,3
2019-04-29T09:57:02.119Z,3
2019-04-29T09:58:02.318Z,3
2019-04-29T09:59:02.432Z,3
2019-04-29T10:00:07.218Z,3
2019-04-29T10:01:02.265Z,3
2019-04-29T10:02:02.473Z,1
2019-04-29T10:03:03.335Z,5
2019-04-29T10:04:01.856Z,5
2019-04-29T10:05:02.165Z,5
2019-04-29T10:06:02.445Z,5
2019-04-29T10:07:02.623Z,5
2019-04-29T10:08:01.850Z,2
2019-04-29T10:09:02.082Z,5
2019-04-29T10:10:07.879Z,5
2019-04-29T10:11:02.430Z,5
2019-04-29T10:12:01.733Z,5
2019-04-29T10:13:01.974Z,5
2019-04-29T10:14:02.193Z,2
2019-04-29T10:15:02.400Z,5
2019-04-29T10:16:02.613Z,5
2019-04-29T10:17:01.806Z,5
2019-04-29T10:18:02.128Z,5
2019-04-29T10:19:06.962Z,5
2019-04-29T10:20:02.496Z,2
2019-04-29T10:21:01.758Z,6
2019-04-29T10:22:01.852Z,6
2019-04-29T10:23:02.132Z,6
2019-04-29T10:24:02.267Z,6
2019-04-29T10:25:02.505Z,6
2019-04-29T10:26:01.780Z,1
2019-04-29T10:27:01.928Z,5
2019-04-29T10:28:02.241Z,5
2019-04-29T10:29:02.454Z,5
2019-04-29T10:30:01.851Z,5
2019-04-29T10:31:01.904Z,5
2019-04-29T10:32:07.105Z,1
2019-04-29T10:33:05.939Z,5
2019-04-29T10:34:01.668Z,5
2019-04-29T10:35:09.004Z,5
2019-04-29T10:36:02.138Z,5
2019-04-29T10:37:02.383Z,5
2019-04-29T10:38:04.196Z,5
2019-04-29T10:39:01.842Z,2
2019-04-29T10:40:11.841Z,2
2019-04-29T10:41:02.618Z,2
2019-04-29T10:42:02.451Z,2
2019-04-29T10:43:01.802Z,2
2019-04-29T10:44:02.009Z,1
2019-04-29T10:45:02.261Z,4
2019-04-29T10:46:02.541Z,4
2019-04-29T10:47:01.590Z,4
2019-04-29T10:48:01.830Z,4
2019-04-29T10:49:06.344Z,4
2019-04-29T10:50:02.087Z,1
2019-04-29T10:51:02.231Z,2
2019-04-29T10:52:04.747Z,2
2019-04-29T10:53:01.748Z,2
2019-04-29T10:54:02.069Z,2
2019-04-29T10:55:02.296Z,2
2019-04-29T10:56:07.146Z,4
2019-04-29T10:57:01.981Z,3
2019-04-29T10:58:02.102Z,3
2019-04-29T10:59:11.011Z,3
2019-04-29T11:00:07.650Z,3
2019-04-29T11:01:02.577Z,3
2019-04-29T11:02:13.926Z,1
2019-04-29T11:03:02.059Z,3
2019-04-29T11:04:03.125Z,3
2019-04-29T11:05:03.190Z,3
2019-04-29T11:06:02.428Z,3
2019-04-29T11:07:19.123Z,3
2019-04-29T11:08:04.460Z,1
2019-04-29T11:09:02.392Z,3
2019-04-29T11:10:02.674Z,3
2019-04-29T11:11:03.035Z,3
2019-04-29T11:12:02.041Z,3
2019-04-29T11:13:02.171Z,3
2019-04-29T11:14:03.538Z,2
2019-04-29T11:15:02.388Z,3
2019-04-29T11:16:01.939Z,3
2019-04-29T11:17:02.141Z,3
2019-04-29T11:18:04.185Z,3
2019-04-29T11:19:06.083Z,3
2019-04-29T11:20:02.371Z,1
2019-04-29T11:21:02.560Z,4
2019-04-29T11:22:03.522Z,4
2019-04-29T11:23:01.891Z,4
2019-04-29T11:24:02.153Z,4
2019-04-29T11:25:02.312Z,4
2019-04-29T11:26:02.484Z,1
2019-04-29T11:27:12.754Z,3
2019-04-29T11:28:01.860Z,3
2019-04-29T11:29:09.526Z,3
2019-04-29T11:30:05.020Z,3
2019-04-29T11:31:02.460Z,3
2019-04-29T11:32:01.658Z,2
2019-04-29T11:33:06.469Z,2
2019-04-29T11:34:05.769Z,2
2019-04-29T11:35:02.443Z,2
2019-04-29T11:36:06.034Z,2
2019-04-29T11:37:01.785Z,2
2019-04-29T11:38:02.073Z,1
2019-04-29T11:39:02.337Z,2
2019-04-29T11:40:02.612Z,2
2019-04-29T11:41:01.789Z,2
2019-04-29T11:42:02.085Z,2
2019-04-29T11:43:02.336Z,2
2019-04-29T11:44:02.525Z,2
2019-04-29T11:45:04.088Z,3
2019-04-29T11:46:01.942Z,3
2019-04-29T11:47:02.141Z,3
2019-04-29T11:48:02.420Z,3
2019-04-29T11:49:02.553Z,3
2019-04-29T11:50:01.808Z,1
2019-04-29T11:51:01.934Z,3
2019-04-29T11:52:10.636Z,3
2019-04-29T11:53:02.361Z,3
2019-04-29T11:54:02.611Z,3
2019-04-29T11:55:01.850Z,3
2019-04-29T11:56:01.966Z,1
2019-04-29T11:57:02.136Z,2
2019-04-29T11:58:02.373Z,2
2019-04-29T11:59:02.610Z,2
2019-04-29T12:00:06.294Z,2
2019-04-29T12:01:08.697Z,2
2019-04-29T12:02:02.277Z,2
2019-04-29T12:03:02.540Z,2
2019-04-29T12:04:01.710Z,2
2019-04-29T12:05:10.088Z,2
2019-04-29T12:06:02.384Z,2
2019-04-29T12:07:02.591Z,2
2019-04-29T12:08:11.688Z,0
2019-04-29T12:09:01.977Z,2
2019-04-29T12:10:07.709Z,2
2019-04-29T12:11:07.837Z,2
2019-04-29T12:12:01.614Z,2
2019-04-29T12:13:01.896Z,2
2019-04-29T12:14:04.734Z,1
2019-04-29T12:15:02.344Z,3
2019-04-29T12:16:02.558Z,3
2019-04-29T12:17:02.288Z,3
2019-04-29T12:18:02.457Z,3
2019-04-29T12:19:01.673Z,3
2019-04-29T12:20:01.844Z,0
2019-04-29T12:21:02.296Z,2
2019-04-29T12:22:10.291Z,2
2019-04-29T12:23:01.687Z,2
2019-04-29T12:24:01.964Z,2
2019-04-29T12:25:02.132Z,2
2019-04-29T12:26:05.144Z,1
2019-04-29T12:27:02.624Z,3
2019-04-29T12:29:02.106Z,3
2019-04-29T12:30:02.234Z,3
2019-04-29T12:31:10.267Z,3
2019-04-29T12:32:02.656Z,2
2019-04-29T12:33:03.538Z,1
2019-04-29T12:34:02.039Z,1
2019-04-29T12:35:02.247Z,1
2019-04-29T12:36:05.331Z,1
2019-04-29T12:37:01.764Z,1
2019-04-29T12:38:11.164Z,2
2019-04-29T12:39:02.129Z,2
2019-04-29T12:40:02.381Z,2
2019-04-29T12:41:02.585Z,2
2019-04-29T12:42:05.975Z,2
2019-04-29T12:43:02.443Z,2
2019-04-29T12:44:01.786Z,1
2019-04-29T12:45:01.799Z,2
2019-04-29T12:46:02.199Z,2
2019-04-29T12:47:02.423Z,2
2019-04-29T12:48:02.525Z,2
2019-04-29T12:49:13.320Z,2
2019-04-29T12:50:02.006Z,1
2019-04-29T12:51:02.276Z,2
2019-04-29T12:52:02.387Z,2
2019-04-29T12:53:02.603Z,2
2019-04-29T12:54:01.826Z,2
2019-04-29T12:55:29.365Z,2
2019-04-29T12:56:02.419Z,1
2019-04-29T12:57:01.689Z,2
2019-04-29T12:58:01.827Z,2
2019-04-29T12:59:02.468Z,2
2019-04-29T13:00:09.523Z,2
2019-04-29T13:01:06.271Z,2
2019-04-29T13:02:02.877Z,1
2019-04-29T13:03:03.045Z,1
2019-04-29T13:04:01.800Z,1
2019-04-29T13:05:02.120Z,1
2019-04-29T13:06:03.027Z,1
2019-04-29T13:07:02.655Z,1
2019-04-29T13:08:01.753Z,1
2019-04-29T13:09:02.093Z,2
2019-04-29T13:10:08.506Z,2
2019-04-29T13:11:02.412Z,2
2019-04-29T13:12:20.226Z,2
2019-04-29T13:13:01.817Z,2
2019-04-29T13:14:02.578Z,1
2019-04-29T13:15:07.985Z,2
2019-04-29T13:16:02.424Z,2
2019-04-29T13:17:15.096Z,2
2019-04-29T13:18:12.665Z,2
2019-04-29T13:19:19.912Z,2
2019-04-29T13:20:11.548Z,0
2019-04-29T13:21:10.932Z,1
2019-04-29T13:22:01.848Z,1
2019-04-29T13:23:33.178Z,1
2019-04-29T13:24:24.796Z,1
2019-04-29T13:25:02.466Z,1
2019-04-29T13:26:02.574Z,1
2019-04-29T13:27:16.748Z,2
2019-04-29T13:28:05.277Z,2
2019-04-29T13:29:02.209Z,2
2019-04-29T13:30:02.497Z,2
2019-04-29T13:31:01.700Z,2
2019-04-29T13:32:02.575Z,1
2019-04-29T13:33:16.669Z,2
2019-04-29T13:34:24.522Z,2
2019-04-29T13:35:12.530Z,2
2019-04-29T13:36:02.566Z,2
2019-04-29T13:37:18.261Z,2
2019-04-29T13:38:02.016Z,1
2019-04-29T13:39:02.382Z,2
2019-04-29T13:40:02.560Z,2
2019-04-29T13:41:18.683Z,2
2019-04-29T13:42:15.100Z,2
2019-04-29T13:43:02.404Z,2
2019-04-29T13:44:07.923Z,1
2019-04-29T13:45:13.345Z,2
2019-04-29T13:46:05.724Z,2
2019-04-29T13:47:02.224Z,2
2019-04-29T13:48:09.168Z,2
2019-04-29T13:49:14.155Z,2
2019-04-29T13:50:33.827Z,0
2019-04-29T13:51:02.105Z,1
2019-04-29T13:52:02.358Z,1
2019-04-29T13:53:02.505Z,1
2019-04-29T13:54:06.753Z,1
2019-04-29T13:55:29.627Z,1
2019-04-29T13:56:32.702Z,1
2019-04-29T13:57:16.076Z,1
2019-04-29T13:58:02.563Z,1
2019-04-29T13:59:12.543Z,1
2019-04-29T14:00:02.285Z,1
2019-04-29T14:01:02.262Z,1
2019-04-29T14:02:07.802Z,0
2019-04-29T14:03:11.068Z,1
2019-04-29T14:04:02.668Z,1
2019-04-29T14:05:02.581Z,1
2019-04-29T14:06:04.870Z,1
2019-04-29T14:07:02.211Z,1
2019-04-29T14:08:04.325Z,0
2019-04-29T14:09:05.604Z,1
2019-04-29T14:10:01.784Z,1
2019-04-29T14:11:01.945Z,1
2019-04-29T14:12:49.326Z,1
2019-04-29T14:14:01.988Z,0
2019-04-29T14:15:02.086Z,1
2019-04-29T14:15:05.537Z,1
2019-04-29T14:16:02.191Z,1
2019-04-29T14:17:26.934Z,1
2019-04-29T14:18:01.626Z,1
2019-04-29T14:19:01.856Z,1
2019-04-29T14:20:02.127Z,1
2019-04-29T14:21:02.322Z,1
2019-04-29T14:22:02.438Z,1
2019-04-29T14:23:02.112Z,1
2019-04-29T14:24:02.390Z,1
2019-04-29T14:25:02.648Z,1
2019-04-29T14:26:01.942Z,0
2019-04-29T14:27:02.141Z,1
2019-04-29T14:28:02.380Z,1
2019-04-29T14:29:02.582Z,1
2019-04-29T14:30:08.821Z,1
2019-04-29T14:31:02.070Z,1
2019-04-29T14:32:01.979Z,0
2019-04-29T14:33:02.322Z,1
2019-04-29T14:34:02.387Z,1
2019-04-29T14:35:13.249Z,1
2019-04-29T14:36:01.959Z,1
2019-04-29T14:37:25.007Z,1
2019-04-29T14:38:06.305Z,1
2019-04-29T14:39:02.509Z,1
2019-04-29T14:40:09.230Z,1
2019-04-29T14:41:02.232Z,1
2019-04-29T14:42:02.389Z,1
2019-04-29T14:43:18.394Z,1
2019-04-29T14:44:01.858Z,0
2019-04-29T14:45:02.130Z,1
2019-04-29T14:46:02.302Z,1
2019-04-29T14:47:02.597Z,1
2019-04-29T14:48:01.842Z,1